Hovedside
METAR-TAF:

METAR-TAF

Lufthavner :

Såtenäs, Sverige

breddegrad: 58-26N, lengdegrad: 012-42E, høyde over havet: 54 m

Gjeldene værobservasjon

Denne rapporten ble laget for 1 time og 11 minutter siden, klokken 09:50 UTC
Vind 10 kt fra Sørvest
Temperatur 9°C
Luftfuktighet 46%
Trykk 1008 hPa
Sikt 10 km eller mer
Få skyer i en høyde av 4500 ft, Tårnskyer (cumulus).
Spredte skyer i en høyde av 15000 ft

METAR: ESIB 270950Z 23010KT 9999 FEW045TCU SCT150 09/M02 Q1008

Tid: 13:01 (11:01 UTC)

Varsel

Denne rapporten ble laget for 2 timer og 31 minutter siden, klokken 08:30 UTC
Varsel gyldig fra 27. klokken 09 UTC til 27. klokken 16 UTC
Vind 13 kt fra Sør-sørvest
Sikt 10 km eller mer
ingen skyer under 1500 m og ingen bygeskyer
Midlertidig
fra 27. klokken 10 UTC til 27. klokken 16 UTC
Sikt: 6000 m
Brutte skyer i en høyde av 3000 ft, Bygeskyer.
lette regnbyger

TAF: ESIB 270830Z 2709/2716 21013KT CAVOK TEMPO 2710/2716 6000 -SHRA BKN030CB RMK MIL

Værobservasjoner og værvarsel for over 4000 flyplasser (METAR- og TAF-rapporter).

Tilgjengelige stasjoner er representert av de røde og gule prikkene på kartet.

Hold musepekeren over prikken for å se navnet på stasjonen.

Klikk så for å se værobservasjoner og -varsler.

For å forandre kartet kan du klikke på den grønne knappen med svart kryss for å zoome inn, på den grønne knappen med strek for å zoome ut, eller på de grønne pilene for å se tilstøtende kart.


METAR-TAF: